GRZLY41 ETNW-ETNW
Flight info
| Callsign | GRZLY41 |
|---|---|
| Flight time | N/A |
| Altitude | 2000 |
| Route | WUN DCT 523401N0091927E DCT 524743N0085851E DCT 525647N0084911E DCT 530623N0084417E DCT 532115N0083541E DCT 533255N0083536E DCT 534144N0082905E DCT NDO DCT 533255N0083536E DCT 532115N0083541E DCT 530642N0082730E DCT 525341N0082601E DCT 524752N0083841E DCT 524055N0084837E DCT 523757N0091306E DCT 523401N0091927E DCT WUN |
| Aircraft | C30J/M-SBDE2FGHIJ4J5M1RTUWXYZ/B1D1L |
Departure
| Time | 2026-04-17 18:34 |
|---|---|
| Airport | Wunstorf Air Base (ETNW) |
Arrival
| Time | N/A |
|---|---|
| Airport | Wunstorf Air Base (ETNW) |
| Time | Latitude | Longitude | Altitude | Speed | Heading |
|---|---|---|---|---|---|
| 2026-04-17 18:00 | 52.45974 | 9.42521 | 173 ft | 0 kts | 262° |
| 2026-04-17 18:27 | 52.45971 | 9.42495 | 173 ft | 8 kts | 262° |
| 2026-04-17 18:27 | 52.45949 | 9.42461 | 173 ft | 8 kts | 193° |
| 2026-04-17 18:27 | 52.45912 | 9.42451 | 173 ft | 3 kts | 220° |
| 2026-04-17 18:27 | 52.45900 | 9.42371 | 173 ft | 10 kts | 262° |
| 2026-04-17 18:28 | 52.45891 | 9.42262 | 173 ft | 10 kts | 262° |
| 2026-04-17 18:28 | 52.45882 | 9.42160 | 173 ft | 11 kts | 261° |
| 2026-04-17 18:28 | 52.45871 | 9.42053 | 173 ft | 6 kts | 261° |
| 2026-04-17 18:28 | 52.45864 | 9.41980 | 173 ft | 8 kts | 261° |
| 2026-04-17 18:29 | 52.45855 | 9.41873 | 173 ft | 12 kts | 263° |
| 2026-04-17 18:29 | 52.45842 | 9.41732 | 173 ft | 14 kts | 256° |
| 2026-04-17 18:29 | 52.45832 | 9.41687 | 173 ft | 0 kts | 240° |
| 2026-04-17 18:31 | 52.45831 | 9.41684 | 173 ft | 4 kts | 240° |
| 2026-04-17 18:32 | 52.45807 | 9.41617 | 174 ft | 10 kts | 240° |
| 2026-04-17 18:32 | 52.45738 | 9.41420 | 179 ft | 16 kts | 240° |
| 2026-04-17 18:32 | 52.45690 | 9.41290 | 181 ft | 12 kts | 227° |
| 2026-04-17 18:32 | 52.45638 | 9.41269 | 178 ft | 5 kts | 172° |
| 2026-04-17 18:33 | 52.45609 | 9.41297 | 177 ft | 6 kts | 122° |
| 2026-04-17 18:33 | 52.45626 | 9.41533 | 179 ft | 58 kts | 82° |
| 2026-04-17 18:33 | 52.45743 | 9.42735 | 219 ft | 144 kts | 84° |
| 2026-04-17 18:33 | 52.45891 | 9.44534 | 674 ft | 166 kts | 84° |
| 2026-04-17 18:34 | 52.46373 | 9.46199 | 1309 ft | 185 kts | 40° |
| 2026-04-17 18:34 | 52.47671 | 9.46278 | 1216 ft | 203 kts | 335° |
| 2026-04-17 18:34 | 52.48829 | 9.44980 | 1152 ft | 199 kts | 326° |
| 2026-04-17 18:34 | 52.49958 | 9.43707 | 1143 ft | 195 kts | 327° |
| 2026-04-17 18:35 | 52.50986 | 9.42320 | 1164 ft | 190 kts | 312° |
| 2026-04-17 18:35 | 52.51889 | 9.40706 | 1176 ft | 194 kts | 314° |
| 2026-04-17 18:35 | 52.52814 | 9.39067 | 1202 ft | 197 kts | 314° |
| 2026-04-17 18:35 | 52.53759 | 9.37402 | 1202 ft | 201 kts | 313° |
| 2026-04-17 18:36 | 52.54706 | 9.35742 | 1225 ft | 197 kts | 315° |
| 2026-04-17 18:36 | 52.55639 | 9.34102 | 1207 ft | 197 kts | 314° |
| 2026-04-17 18:36 | 52.56577 | 9.32456 | 1203 ft | 197 kts | 315° |
| 2026-04-17 18:36 | 52.57501 | 9.30811 | 1218 ft | 195 kts | 313° |
| 2026-04-17 18:37 | 52.58398 | 9.29136 | 1224 ft | 194 kts | 313° |
| 2026-04-17 18:37 | 52.59310 | 9.27512 | 1239 ft | 193 kts | 314° |
| 2026-04-17 18:37 | 52.60233 | 9.25907 | 1205 ft | 193 kts | 313° |
| 2026-04-17 18:37 | 52.61091 | 9.24205 | 1190 ft | 193 kts | 308° |
| 2026-04-17 18:38 | 52.61880 | 9.22425 | 1165 ft | 193 kts | 306° |
| 2026-04-17 18:38 | 52.62664 | 9.20640 | 1161 ft | 192 kts | 308° |
| 2026-04-17 18:38 | 52.63588 | 9.19090 | 1178 ft | 190 kts | 324° |
| 2026-04-17 18:38 | 52.64742 | 9.17974 | 1240 ft | 193 kts | 338° |
| 2026-04-17 18:39 | 52.65997 | 9.17201 | 1247 ft | 192 kts | 346° |
| 2026-04-17 18:39 | 52.67261 | 9.16624 | 1246 ft | 191 kts | 348° |
| 2026-04-17 18:39 | 52.68529 | 9.15932 | 1258 ft | 193 kts | 341° |
| 2026-04-17 18:39 | 52.69753 | 9.14992 | 1295 ft | 195 kts | 335° |
| 2026-04-17 18:40 | 52.70941 | 9.13895 | 1419 ft | 195 kts | 331° |
| 2026-04-17 18:40 | 52.72098 | 9.12713 | 1596 ft | 197 kts | 329° |
| 2026-04-17 18:40 | 52.73247 | 9.11467 | 1627 ft | 197 kts | 326° |
| 2026-04-17 18:40 | 52.74274 | 9.09972 | 1635 ft | 198 kts | 312° |
| 2026-04-17 18:41 | 52.75071 | 9.08120 | 1608 ft | 198 kts | 299° |
| 2026-04-17 18:41 | 52.75629 | 9.06041 | 1632 ft | 197 kts | 288° |
| 2026-04-17 18:41 | 52.75974 | 9.03878 | 1637 ft | 195 kts | 283° |
| 2026-04-17 18:41 | 52.76322 | 9.01712 | 1568 ft | 194 kts | 285° |
| 2026-04-17 18:42 | 52.76706 | 8.99549 | 1617 ft | 197 kts | 285° |
| 2026-04-17 18:42 | 52.77090 | 8.97379 | 1641 ft | 197 kts | 288° |
| 2026-04-17 18:42 | 52.77727 | 8.95397 | 1649 ft | 195 kts | 310° |
| 2026-04-17 18:42 | 52.78784 | 8.94024 | 1640 ft | 194 kts | 337° |
| 2026-04-17 18:43 | 52.80079 | 8.93570 | 1625 ft | 190 kts | 6° |
| 2026-04-17 18:43 | 52.81316 | 8.94164 | 1644 ft | 184 kts | 36° |
| 2026-04-17 18:43 | 52.82158 | 8.95682 | 1675 ft | 178 kts | 68° |
| 2026-04-17 18:43 | 52.82343 | 8.97652 | 1673 ft | 173 kts | 100° |
| 2026-04-17 18:44 | 52.82065 | 8.99568 | 1685 ft | 174 kts | 106° |
| 2026-04-17 18:44 | 52.81724 | 9.01487 | 1672 ft | 174 kts | 108° |
| 2026-04-17 18:44 | 52.81353 | 9.03391 | 1677 ft | 175 kts | 109° |
| 2026-04-17 18:44 | 52.80956 | 9.05268 | 1643 ft | 172 kts | 111° |
| 2026-04-17 18:45 | 52.80531 | 9.07120 | 1634 ft | 172 kts | 112° |
| 2026-04-17 18:45 | 52.80067 | 9.08953 | 1650 ft | 174 kts | 114° |
| 2026-04-17 18:45 | 52.79563 | 9.10740 | 1711 ft | 169 kts | 116° |
| 2026-04-17 18:45 | 52.79011 | 9.12467 | 1797 ft | 171 kts | 119° |
| 2026-04-17 18:46 | 52.78429 | 9.14177 | 1820 ft | 170 kts | 121° |
| 2026-04-17 18:46 | 52.77811 | 9.15836 | 1775 ft | 169 kts | 122° |
| 2026-04-17 18:46 | 52.77188 | 9.17485 | 1770 ft | 170 kts | 123° |
| 2026-04-17 18:46 | 52.76432 | 9.18977 | 1768 ft | 170 kts | 141° |
| 2026-04-17 18:47 | 52.75363 | 9.19750 | 1768 ft | 174 kts | 168° |
| 2026-04-17 18:47 | 52.74150 | 9.19556 | 1780 ft | 181 kts | 196° |
| 2026-04-17 18:47 | 52.73092 | 9.18377 | 1805 ft | 189 kts | 224° |
| 2026-04-17 18:47 | 52.72478 | 9.16443 | 1795 ft | 196 kts | 255° |
| 2026-04-17 18:48 | 52.72532 | 9.14206 | 1780 ft | 199 kts | 287° |
| 2026-04-17 18:48 | 52.73104 | 9.12113 | 1770 ft | 201 kts | 296° |
| 2026-04-17 18:48 | 52.73754 | 9.10087 | 1685 ft | 199 kts | 300° |
| 2026-04-17 18:48 | 52.74469 | 9.08152 | 1497 ft | 195 kts | 303° |
| 2026-04-17 18:49 | 52.75213 | 9.06260 | 1578 ft | 196 kts | 304° |
| 2026-04-17 18:49 | 52.75991 | 9.04420 | 1609 ft | 195 kts | 306° |
| 2026-04-17 18:49 | 52.76804 | 9.02615 | 1570 ft | 196 kts | 308° |
| 2026-04-17 18:49 | 52.77681 | 9.00902 | 1521 ft | 195 kts | 314° |
| 2026-04-17 18:50 | 52.78647 | 8.99331 | 1523 ft | 195 kts | 318° |
| 2026-04-17 18:50 | 52.79649 | 8.97823 | 1497 ft | 195 kts | 320° |
| 2026-04-17 18:50 | 52.80667 | 8.96348 | 1519 ft | 195 kts | 320° |
| 2026-04-17 18:50 | 52.81695 | 8.94890 | 1525 ft | 195 kts | 320° |
| 2026-04-17 18:51 | 52.82707 | 8.93430 | 1517 ft | 195 kts | 320° |
| 2026-04-17 18:51 | 52.83720 | 8.91940 | 1514 ft | 195 kts | 319° |
| 2026-04-17 18:51 | 52.84733 | 8.90460 | 1505 ft | 195 kts | 320° |
| 2026-04-17 18:51 | 52.85759 | 8.88991 | 1504 ft | 195 kts | 321° |
| 2026-04-17 18:52 | 52.86804 | 8.87567 | 1500 ft | 194 kts | 322° |
| 2026-04-17 18:52 | 52.87893 | 8.86237 | 1510 ft | 194 kts | 327° |
| 2026-04-17 18:52 | 52.89036 | 8.85054 | 1567 ft | 193 kts | 332° |
| 2026-04-17 18:52 | 52.90203 | 8.83995 | 1829 ft | 194 kts | 334° |
| 2026-04-17 18:53 | 52.91407 | 8.82959 | 2168 ft | 196 kts | 335° |
| 2026-04-17 18:53 | 52.92646 | 8.81990 | 2468 ft | 196 kts | 337° |
| 2026-04-17 18:53 | 52.93926 | 8.81192 | 2728 ft | 197 kts | 344° |
| 2026-04-17 18:53 | 52.95243 | 8.80618 | 2918 ft | 196 kts | 348° |
| 2026-04-17 18:54 | 52.96584 | 8.80172 | 2994 ft | 197 kts | 349° |
| 2026-04-17 18:54 | 52.97959 | 8.79762 | 3022 ft | 206 kts | 352° |
| 2026-04-17 18:54 | 52.99409 | 8.79427 | 3134 ft | 217 kts | 353° |
| 2026-04-17 18:54 | 53.00949 | 8.79091 | 3112 ft | 230 kts | 353° |
| 2026-04-17 18:55 | 53.02528 | 8.78789 | 2995 ft | 228 kts | 355° |
| 2026-04-17 18:55 | 53.04102 | 8.78490 | 2991 ft | 228 kts | 353° |
| 2026-04-17 18:55 | 53.05666 | 8.78052 | 3007 ft | 229 kts | 348° |
| 2026-04-17 18:55 | 53.07196 | 8.77325 | 3005 ft | 229 kts | 342° |
| 2026-04-17 18:56 | 53.08674 | 8.76457 | 3032 ft | 229 kts | 340° |
| 2026-04-17 18:56 | 53.10161 | 8.75498 | 3017 ft | 229 kts | 338° |
| 2026-04-17 18:56 | 53.11627 | 8.74468 | 2995 ft | 229 kts | 336° |
| 2026-04-17 18:56 | 53.13064 | 8.73356 | 2982 ft | 229 kts | 335° |
| 2026-04-17 18:57 | 53.14506 | 8.72234 | 2976 ft | 229 kts | 335° |
| 2026-04-17 18:57 | 53.15955 | 8.71118 | 2961 ft | 229 kts | 335° |
| 2026-04-17 18:57 | 53.17402 | 8.70007 | 2763 ft | 226 kts | 335° |
| 2026-04-17 18:57 | 53.18819 | 8.68909 | 2457 ft | 224 kts | 335° |
| 2026-04-17 18:58 | 53.20221 | 8.67809 | 2140 ft | 223 kts | 336° |
| 2026-04-17 18:58 | 53.21628 | 8.66720 | 1877 ft | 222 kts | 335° |
| 2026-04-17 18:58 | 53.23018 | 8.65622 | 1689 ft | 221 kts | 335° |
| 2026-04-17 18:58 | 53.24365 | 8.64387 | 1745 ft | 221 kts | 329° |
| 2026-04-17 18:59 | 53.25687 | 8.63050 | 1804 ft | 222 kts | 329° |
| 2026-04-17 18:59 | 53.27019 | 8.61734 | 1799 ft | 223 kts | 329° |
| 2026-04-17 18:59 | 53.28340 | 8.60419 | 1740 ft | 219 kts | 329° |
| 2026-04-17 18:59 | 53.29561 | 8.58852 | 2001 ft | 223 kts | 320° |
| 2026-04-17 19:00 | 53.30735 | 8.57144 | 2002 ft | 224 kts | 319° |
| 2026-04-17 19:00 | 53.31903 | 8.55426 | 2005 ft | 223 kts | 319° |
| 2026-04-17 19:00 | 53.33061 | 8.53752 | 2014 ft | 220 kts | 319° |
| 2026-04-17 19:00 | 53.34237 | 8.52088 | 2022 ft | 222 kts | 320° |
| 2026-04-17 19:01 | 53.35428 | 8.50438 | 1972 ft | 222 kts | 321° |
| 2026-04-17 19:01 | 53.36639 | 8.48840 | 1883 ft | 221 kts | 322° |
| 2026-04-17 19:01 | 53.37849 | 8.47241 | 1920 ft | 222 kts | 320° |
| 2026-04-17 19:01 | 53.38985 | 8.45487 | 1965 ft | 223 kts | 317° |
| 2026-04-17 19:02 | 53.40023 | 8.43649 | 1959 ft | 223 kts | 295° |
| 2026-04-17 19:02 | 53.40692 | 8.41329 | 1969 ft | 222 kts | 296° |
| 2026-04-17 19:02 | 53.41475 | 8.39103 | 1950 ft | 222 kts | 305° |
| 2026-04-17 19:02 | 53.42457 | 8.37104 | 1956 ft | 222 kts | 311° |
| 2026-04-17 19:03 | 53.43488 | 8.35172 | 1970 ft | 222 kts | 312° |
| 2026-04-17 19:03 | 53.44480 | 8.33204 | 1981 ft | 223 kts | 313° |
| 2026-04-17 19:03 | 53.45856 | 8.32221 | 2011 ft | 221 kts | 1° |
| 2026-04-17 19:03 | 53.47375 | 8.32516 | 2012 ft | 220 kts | 9° |
| 2026-04-17 19:04 | 53.48863 | 8.32878 | 2011 ft | 205 kts | 9° |
| 2026-04-17 19:04 | 53.50195 | 8.32741 | 2011 ft | 191 kts | 334° |
| 2026-04-17 19:04 | 53.51041 | 8.31115 | 2003 ft | 189 kts | 284° |
| 2026-04-17 19:04 | 53.50879 | 8.29007 | 2009 ft | 186 kts | 236° |
| 2026-04-17 19:05 | 53.49843 | 8.27867 | 1957 ft | 182 kts | 189° |
| 2026-04-17 19:05 | 53.48607 | 8.27600 | 1952 ft | 181 kts | 187° |
| 2026-04-17 19:05 | 53.47362 | 8.27335 | 1983 ft | 181 kts | 188° |
| 2026-04-17 19:05 | 53.46125 | 8.27041 | 1927 ft | 171 kts | 188° |
| 2026-04-17 19:06 | 53.44988 | 8.26758 | 1912 ft | 162 kts | 188° |
| 2026-04-17 19:06 | 53.43819 | 8.26491 | 1954 ft | 187 kts | 188° |
| 2026-04-17 19:06 | 53.42500 | 8.26237 | 1962 ft | 193 kts | 184° |
| 2026-04-17 19:06 | 53.41241 | 8.26826 | 1971 ft | 191 kts | 139° |
| 2026-04-17 19:07 | 53.40664 | 8.28771 | 2004 ft | 193 kts | 92° |
| 2026-04-17 19:07 | 53.41163 | 8.30810 | 2007 ft | 197 kts | 44° |
| 2026-04-17 19:07 | 53.42426 | 8.31624 | 1981 ft | 200 kts | 4° |
| 2026-04-17 19:07 | 53.43810 | 8.31793 | 1985 ft | 200 kts | 6° |
| 2026-04-17 19:08 | 53.45193 | 8.32008 | 1993 ft | 200 kts | 6° |
| 2026-04-17 19:08 | 53.46577 | 8.32260 | 1987 ft | 199 kts | 8° |
| 2026-04-17 19:08 | 53.47953 | 8.32573 | 2015 ft | 199 kts | 9° |
| 2026-04-17 19:08 | 53.49331 | 8.32903 | 2127 ft | 201 kts | 9° |
| 2026-04-17 19:09 | 53.50699 | 8.33239 | 2167 ft | 201 kts | 10° |
| 2026-04-17 19:09 | 53.52077 | 8.33616 | 2161 ft | 200 kts | 11° |
| 2026-04-17 19:09 | 53.53445 | 8.34056 | 2086 ft | 200 kts | 13° |
| 2026-04-17 19:09 | 53.54803 | 8.34550 | 2022 ft | 199 kts | 13° |
| 2026-04-17 19:10 | 53.56156 | 8.35052 | 2021 ft | 199 kts | 14° |
| 2026-04-17 19:10 | 53.57509 | 8.35572 | 2048 ft | 200 kts | 14° |
| 2026-04-17 19:10 | 53.58862 | 8.36111 | 2001 ft | 199 kts | 15° |
| 2026-04-17 19:10 | 53.60204 | 8.36681 | 1973 ft | 199 kts | 15° |
| 2026-04-17 19:11 | 53.61541 | 8.37258 | 2019 ft | 199 kts | 15° |
| 2026-04-17 19:11 | 53.62878 | 8.37870 | 2052 ft | 200 kts | 17° |
| 2026-04-17 19:11 | 53.64211 | 8.38536 | 2051 ft | 200 kts | 18° |
| 2026-04-17 19:11 | 53.65531 | 8.39245 | 2043 ft | 199 kts | 20° |
| 2026-04-17 19:12 | 53.66843 | 8.40003 | 2039 ft | 200 kts | 21° |
| 2026-04-17 19:12 | 53.68115 | 8.40918 | 2022 ft | 198 kts | 32° |
| 2026-04-17 19:12 | 53.69078 | 8.42527 | 2014 ft | 195 kts | 63° |
| 2026-04-17 19:12 | 53.69368 | 8.44689 | 2002 ft | 193 kts | 97° |
| 2026-04-17 19:13 | 53.68821 | 8.46692 | 2013 ft | 192 kts | 136° |
| 2026-04-17 19:13 | 53.67646 | 8.47669 | 2004 ft | 192 kts | 172° |
| 2026-04-17 19:13 | 53.66295 | 8.47602 | 2018 ft | 193 kts | 187° |
| 2026-04-17 19:13 | 53.66252 | 8.47593 | 2019 ft | 193 kts | 187° |
| 2026-04-17 19:14 | 53.66120 | 8.47562 | 2016 ft | 192 kts | 188° |
| 2026-04-17 19:14 | 53.64809 | 8.47119 | 2004 ft | 192 kts | 192° |
| 2026-04-17 19:14 | 53.63511 | 8.46550 | 1940 ft | 193 kts | 195° |
| 2026-04-17 19:15 | 53.62231 | 8.45882 | 1864 ft | 192 kts | 198° |
| 2026-04-17 19:15 | 53.61555 | 8.45471 | 1814 ft | 192 kts | 199° |